Disclaimer

Please do not use the information listed here in-flight or in-navigation, as they are not provided to us by the airports but are provided by volunteers, so they might be outdated.

Search


Regions


Airport information page

Radio informations:
Tower (TWR) - 120.65 MHz
Approach (APP) - 120.65 MHz

Airport informations:
Latitude: 37° 55' 14.55" N
Longitude: 021° 17' 33.30" E
Elevation: 55 feet - 17 meters
Operating hours: From sunrise to sunset (SR-SS)
Operating agency: Military
Timezone: UTC+2(+3DT)
Fuel: Jet A1, without icing nhibitor.

Runway information:
16/34 - 10299 x 148 feet< - >3139 x 45 meters

Recent METARs:
LGAD 171950Z 03006KT 8000 RA FEW012 BKN025 BKN070 11/11 Q1016
LGAD 172020Z 03004KT 9000 -RA FEW012 BKN025 BKN070 10/10 Q1015
LGAD 172050Z 03004KT 8000 RA FEW012 BKN025 BKN070 10/10 Q1015

Airport on the map: